Time;durP1;ratioP1;P1;durP2;ratioP2;P2;SDS_P1;SDS_P2;PMS_P1;PMS_P2;Temp;Humidity;BMP_temperature;BMP_pressure;BME280_temperature;BME280_humidity;BME280_pressure;Samples;Min_cycle;Max_cycle;Signal;HPM_P1;HPM_P2
2023/07/01 00:02:13;;;;;;;21.67;15.97;;;;;;;14.51;100.00;95703.69;7401248;19;20403;-71
2023/07/01 00:04:43;;;;;;;26.60;14.87;;;;;;;14.54;100.00;95719.69;7399591;19;20371;-72
2023/07/01 00:07:10;;;;;;;30.70;13.93;;;;;;;14.19;100.00;95704.13;7399085;19;20417;-72
2023/07/01 00:09:37;;;;;;;19.20;13.40;;;;;;;14.26;100.00;95698.09;7399815;19;20401;-72
2023/07/01 00:12:04;;;;;;;16.20;13.00;;;;;;;14.15;100.00;95698.00;7401692;19;20753;-72
2023/07/01 00:14:31;;;;;;;20.43;11.60;;;;;;;14.01;100.00;95685.31;7398956;19;20428;-72
2023/07/01 00:17:01;;;;;;;17.37;14.00;;;;;;;14.17;100.00;95690.44;7399175;19;20443;-73
2023/07/01 00:19:28;;;;;;;17.77;15.67;;;;;;;13.90;100.00;95681.81;7399885;19;20869;-72
2023/07/01 00:21:55;;;;;;;15.97;14.37;;;;;;;14.26;100.00;95692.78;7401141;19;20933;-72
2023/07/01 00:24:22;;;;;;;18.20;13.37;;;;;;;14.31;100.00;95698.56;7400985;19;20390;-72
2023/07/01 00:26:49;;;;;;;24.47;17.37;;;;;;;14.40;100.00;95706.22;7399186;19;20915;-72
2023/07/01 00:29:16;;;;;;;24.33;18.20;;;;;;;14.56;100.00;95688.19;7399781;19;20843;-72
2023/07/01 00:31:43;;;;;;;26.90;17.80;;;;;;;14.79;100.00;95694.06;7402444;19;20370;-71
2023/07/01 00:34:10;;;;;;;25.33;17.30;;;;;;;14.86;100.00;95701.34;7399315;19;20398;-71
2023/07/01 00:36:37;;;;;;;23.50;17.23;;;;;;;14.86;100.00;95697.91;7397830;19;20745;-71
2023/07/01 00:39:04;;;;;;;21.90;18.40;;;;;;;15.03;100.00;95713.25;7399328;19;20352;-71
2023/07/01 00:41:31;;;;;;;21.73;18.13;;;;;;;14.85;100.00;95701.72;7398006;19;20858;-71
2023/07/01 00:43:58;;;;;;;23.50;19.67;;;;;;;15.00;100.00;95722.75;7399205;19;20932;-71
2023/07/01 00:46:25;;;;;;;22.23;19.87;;;;;;;14.62;100.00;95713.31;7395870;19;20438;-71
2023/07/01 00:48:52;;;;;;;27.77;22.00;;;;;;;14.48;100.00;95726.47;7398921;19;20357;-71
2023/07/01 00:51:20;;;;;;;24.10;19.03;;;;;;;14.82;100.00;95710.41;7397474;19;20417;-71
2023/07/01 00:53:47;;;;;;;23.60;20.30;;;;;;;14.88;100.00;95703.63;7398858;19;20402;-71
2023/07/01 00:56:14;;;;;;;23.47;18.50;;;;;;;15.17;100.00;95729.31;7395571;19;20440;-71
2023/07/01 00:58:41;;;;;;;23.13;18.37;;;;;;;15.11;100.00;95706.84;7398846;19;20400;-71
2023/07/01 01:01:13;;;;;;;24.33;18.80;;;;;;;15.13;100.00;95714.47;7397380;19;20385;-71
2023/07/01 01:04:00;;;;;;;27.37;21.23;;;;;;;15.14;100.00;95713.31;7398994;19;20879;-71
2023/07/01 01:06:53;;;;;;;23.03;17.77;;;;;;;14.91;100.00;95665.63;7398828;19;20736;-71
2023/07/01 01:09:45;;;;;;;19.40;16.17;;;;;;;14.98;100.00;95693.06;7397083;19;20957;-71
2023/07/01 01:12:13;;;;;;;23.07;18.20;;;;;;;14.85;100.00;95680.41;7399117;19;20771;-71
2023/07/01 01:14:43;;;;;;;23.27;17.97;;;;;;;15.21;100.00;95702.72;7394482;19;20848;-71
2023/07/01 01:17:13;;;;;;;22.43;19.53;;;;;;;15.32;100.00;95708.88;7395004;19;20762;-71
2023/07/01 01:19:46;;;;;;;24.97;19.03;;;;;;;15.18;100.00;95692.81;7397982;19;20946;-71
2023/07/01 01:22:21;;;;;;;23.00;18.93;;;;;;;15.15;100.00;95689.00;7396543;19;20416;-71
2023/07/01 01:24:57;;;;;;;23.00;19.13;;;;;;;14.99;100.00;95649.34;7400462;19;20720;-71
2023/07/01 01:27:28;;;;;;;24.33;20.13;;;;;;;15.37;100.00;95716.53;7395489;19;20431;-72
2023/07/01 01:29:55;;;;;;;23.80;19.00;;;;;;;15.20;100.00;95706.50;7399017;19;20753;-71
2023/07/01 01:32:22;;;;;;;27.07;21.10;;;;;;;15.06;100.00;95707.19;7397255;19;20405;-71
2023/07/01 01:34:49;;;;;;;21.97;17.30;;;;;;;14.73;100.00;95689.44;7397919;19;20378;-71
2023/07/01 01:37:28;;;;;;;21.20;18.80;;;;;;;14.59;100.00;95674.13;7395641;19;20448;-72
2023/07/01 01:40:09;;;;;;;25.53;15.80;;;;;;;14.36;100.00;95639.69;7395677;19;20404;-71
2023/07/01 01:42:40;;;;;;;22.17;17.90;;;;;;;14.57;100.00;95670.31;7398055;19;20378;-71
2023/07/01 01:45:07;;;;;;;22.07;16.90;;;;;;;14.60;100.00;95670.34;7395997;19;20753;-71
2023/07/01 01:47:36;;;;;;;21.00;17.70;;;;;;;14.69;100.00;95691.28;7395779;19;20425;-71
2023/07/01 01:50:09;;;;;;;23.20;18.80;;;;;;;14.66;100.00;95690.13;7396630;19;20683;-71
2023/07/01 01:52:38;;;;;;;21.73;17.20;;;;;;;14.65;100.00;95683.28;7398143;19;20375;-71
2023/07/01 01:55:08;;;;;;;22.57;17.50;;;;;;;14.70;100.00;95698.94;7395494;19;20752;-71
2023/07/01 01:57:35;;;;;;;20.57;16.00;;;;;;;14.68;100.00;95705.72;7394713;19;20434;-71
2023/07/01 02:00:08;;;;;;;22.43;16.73;;;;;;;14.51;100.00;95696.47;7396237;19;20390;-71
2023/07/01 02:02:41;;;;;;;17.73;15.77;;;;;;;14.60;100.00;95690.88;7397133;19;20944;-72
2023/07/01 02:05:08;;;;;;;23.47;18.67;;;;;;;14.20;100.00;95684.38;7396529;19;20402;-73
2023/07/01 02:07:36;;;;;;;26.70;17.77;;;;;;;14.15;100.00;95690.78;7393691;19;20454;-71
2023/07/01 02:10:05;;;;;;;23.90;19.53;;;;;;;14.35;100.00;95674.66;7396875;19;20378;-71
2023/07/01 02:12:34;;;;;;;29.47;17.03;;;;;;;14.20;100.00;95663.13;7396767;19;20340;-71
2023/07/01 02:15:01;;;;;;;19.87;17.13;;;;;;;14.49;100.00;95682.78;7396322;19;20398;-71
2023/07/01 02:17:28;;;;;;;18.70;15.53;;;;;;;14.47;100.00;95666.44;7404515;19;20458;-71
2023/07/01 02:19:55;;;;;;;16.70;14.90;;;;;;;14.62;100.00;95689.34;7408261;19;20405;-71
2023/07/01 02:22:22;;;;;;;18.47;15.20;;;;;;;14.47;100.00;95685.03;7405012;19;20374;-71
2023/07/01 02:24:49;;;;;;;30.57;24.07;;;;;;;14.60;100.00;95691.63;7397050;19;20375;-71
2023/07/01 02:27:16;;;;;;;26.23;15.60;;;;;;;14.54;100.00;95671.78;7393600;19;20453;-71
2023/07/01 02:29:44;;;;;;;20.70;16.10;;;;;;;14.66;100.00;95687.47;7396702;19;20366;-71
2023/07/01 02:32:11;;;;;;;17.57;15.20;;;;;;;14.58;100.00;95693.91;7395203;19;20385;-72
2023/07/01 02:34:39;;;;;;;20.50;15.53;;;;;;;14.52;100.00;95687.38;7396502;19;20388;-72
2023/07/01 02:37:06;;;;;;;25.53;14.17;;;;;;;14.24;100.00;95676.44;7393264;19;20436;-71
2023/07/01 02:39:33;;;;;;;22.30;16.47;;;;;;;13.93;100.00;95659.81;7396462;19;20366;-71
2023/07/01 02:42:00;;;;;;;39.93;27.53;;;;;;;13.77;100.00;95641.41;7394484;19;20897;-71
2023/07/01 02:44:27;;;;;;;28.37;21.83;;;;;;;14.00;100.00;95675.03;7396094;19;20400;-71
2023/07/01 02:46:54;;;;;;;35.90;28.13;;;;;;;13.97;100.00;95665.16;7393815;19;20441;-72
2023/07/01 02:49:21;;;;;;;23.63;18.17;;;;;;;14.07;100.00;95675.91;7395859;19;20888;-72
2023/07/01 02:51:47;;;;;;;26.33;20.83;;;;;;;14.15;100.00;95698.75;7394696;19;20377;-72
2023/07/01 02:54:14;;;;;;;16.00;14.00;;;;;;;13.99;100.00;95684.16;7395734;19;20936;-72
2023/07/01 02:56:41;;;;;;;24.97;14.10;;;;;;;14.04;100.00;95703.22;7392852;19;20433;-72
2023/07/01 02:59:08;;;;;;;17.47;13.13;;;;;;;13.86;100.00;95699.56;7396144;19;20369;-72
2023/07/01 03:01:35;;;;;;;16.93;13.70;;;;;;;13.79;100.00;95702.94;7394161;19;20385;-71
2023/07/01 03:04:05;;;;;;;13.43;11.77;;;;;;;13.73;100.00;95706.25;7397263;19;20412;-72
2023/07/01 03:06:46;;;;;;;13.37;11.90;;;;;;;13.55;100.00;95701.50;7393684;19;20436;-71
2023/07/01 03:09:14;;;;;;;13.37;11.30;;;;;;;13.35;100.00;95676.19;7395428;19;20353;-71
2023/07/01 03:11:41;;;;;;;13.60;10.60;;;;;;;13.55;100.00;95700.72;7402238;19;20404;-71
2023/07/01 03:14:08;;;;;;;14.03;11.33;;;;;;;13.48;100.00;95680.13;7400951;19;20378;-71
2023/07/01 03:16:35;;;;;;;14.70;12.67;;;;;;;13.44;100.00;95689.19;7399658;19;20959;-71
2023/07/01 03:19:05;;;;;;;12.00;10.33;;;;;;;13.17;100.00;95681.22;7401118;19;20372;-71
2023/07/01 03:21:34;;;;;;;13.93;12.33;;;;;;;13.19;100.00;95697.59;7403077;19;20844;-70
2023/07/01 03:24:01;;;;;;;14.27;11.20;;;;;;;12.94;100.00;95680.50;7401074;19;20392;-71
2023/07/01 03:26:28;;;;;;;15.17;10.90;;;;;;;12.99;100.00;95688.94;7400698;19;20959;-72
2023/07/01 03:28:56;;;;;;;18.13;11.77;;;;;;;13.05;100.00;95702.66;7401201;19;20477;-72
2023/07/01 03:31:23;;;;;;;17.80;12.73;;;;;;;12.85;100.00;95686.09;7402567;19;20372;-72
2023/07/01 03:33:50;;;;;;;20.30;12.07;;;;;;;12.89;100.00;95673.63;7401152;19;20380;-72
2023/07/01 03:36:17;;;;;;;24.60;10.90;;;;;;;12.79;100.00;95679.53;7400637;19;20424;-70
2023/07/01 03:38:44;;;;;;;21.73;10.87;;;;;;;12.63;100.00;95655.03;7402284;19;20341;-71
2023/07/01 03:41:11;;;;;;;14.73;10.03;;;;;;;12.75;100.00;95662.03;7402354;19;20396;-71
2023/07/01 03:43:38;;;;;;;14.13;11.43;;;;;;;12.98;100.00;95702.56;7401037;19;20399;-71
2023/07/01 03:46:05;;;;;;;13.37;10.03;;;;;;;12.86;100.00;95673.56;7402587;19;20451;-71
2023/07/01 03:48:32;;;;;;;9.93;8.97;;;;;;;13.02;100.00;95680.25;7400697;19;20374;-72
2023/07/01 03:50:59;;;;;;;12.13;9.60;;;;;;;12.86;100.00;95670.94;7402005;19;20943;-72
2023/07/01 03:53:26;;;;;;;13.20;9.97;;;;;;;13.18;100.00;95692.59;7400355;19;20410;-72
2023/07/01 03:55:53;;;;;;;10.43;9.50;;;;;;;13.26;100.00;95681.78;7401072;19;20425;-70
2023/07/01 03:58:24;;;;;;;11.23;9.33;;;;;;;13.12;100.00;95670.16;7400650;19;20413;-71
2023/07/01 04:00:53;;;;;;;13.00;9.80;;;;;;;13.12;100.00;95670.16;7402813;19;20380;-71
2023/07/01 04:03:23;;;;;;;12.60;9.10;;;;;;;13.28;100.00;95698.09;7400267;19;20996;-71
2023/07/01 04:05:51;;;;;;;9.07;8.17;;;;;;;13.40;100.00;95701.66;7398704;19;20756;-72
2023/07/01 04:08:20;;;;;;;12.83;10.27;;;;;;;13.50;100.00;95711.69;7400353;19;20410;-70
2023/07/01 04:10:47;;;;;;;18.17;8.87;;;;;;;13.59;100.00;95709.50;7399302;19;20384;-70
2023/07/01 04:13:14;;;;;;;12.43;8.67;;;;;;;13.48;100.00;95696.06;7400896;19;20697;-70
2023/07/01 04:15:41;;;;;;;11.60;9.43;;;;;;;13.56;100.00;95688.97;7399488;19;20400;-70
2023/07/01 04:18:08;;;;;;;11.60;10.03;;;;;;;13.74;100.00;95705.13;7400161;19;20373;-70
2023/07/01 04:20:35;;;;;;;12.53;9.80;;;;;;;13.86;100.00;95703.00;7397712;19;20943;-70
2023/07/01 04:23:02;;;;;;;13.47;8.73;;;;;;;13.82;100.00;95704.09;7399484;19;20733;-70
2023/07/01 04:25:29;;;;;;;11.20;9.70;;;;;;;13.83;100.00;95710.94;7399621;19;20412;-70
2023/07/01 04:27:56;;;;;;;11.37;9.80;;;;;;;13.31;100.00;95683.34;7400237;19;20401;-70
2023/07/01 04:30:24;;;;;;;8.63;7.63;;;;;;;13.28;100.00;95668.91;7399732;19;20338;-70
2023/07/01 04:32:51;;;;;;;9.33;8.43;;;;;;;13.55;100.00;95674.16;7399860;19;20370;-71
2023/07/01 04:35:18;;;;;;;10.10;8.20;;;;;;;13.65;100.00;95678.84;7397971;19;20766;-71
2023/07/01 04:37:45;;;;;;;8.03;7.33;;;;;;;13.95;100.00;95701.97;7400299;19;20394;-70
2023/07/01 04:40:12;;;;;;;8.80;7.90;;;;;;;13.74;100.00;95679.31;7401324;19;20339;-71
2023/07/01 04:42:49;;;;;;;9.27;8.20;;;;;;;13.88;100.00;95686.69;7400735;19;20458;-72
2023/07/01 04:45:20;;;;;;;9.60;8.60;;;;;;;13.95;100.00;95688.66;7398726;19;20376;-70
2023/07/01 04:47:48;;;;;;;9.40;8.43;;;;;;;14.04;100.00;95703.22;7399976;19;20382;-72
2023/07/01 04:50:15;;;;;;;8.53;7.63;;;;;;;14.17;100.00;95711.72;7400786;19;20355;-71
2023/07/01 04:52:43;;;;;;;9.43;8.50;;;;;;;14.03;100.00;95685.75;7400178;19;20389;-72
2023/07/01 04:55:10;;;;;;;9.77;8.77;;;;;;;14.28;100.00;95717.88;7398246;19;20417;-72
2023/07/01 04:57:37;;;;;;;7.23;6.53;;;;;;;14.11;100.00;95695.31;7397521;19;20421;-70
2023/07/01 05:00:07;;;;;;;9.23;8.33;;;;;;;14.48;100.00;95723.81;7398520;19;20401;-71
2023/07/01 05:02:34;;;;;;;8.73;7.97;;;;;;;14.63;100.00;95714.81;7400057;19;20387;-70
2023/07/01 05:05:01;;;;;;;7.57;6.93;;;;;;;14.56;100.00;95692.75;7398454;19;20373;-70
2023/07/01 05:07:28;;;;;;;9.27;8.33;;;;;;;14.67;100.00;95718.28;7398430;19;20796;-71
2023/07/01 05:09:55;;;;;;;9.50;8.60;;;;;;;14.60;100.00;95712.16;7398536;19;20385;-71
2023/07/01 05:12:22;;;;;;;7.80;7.10;;;;;;;14.75;100.00;95727.88;7399481;19;20362;-71
2023/07/01 05:14:49;;;;;;;7.90;7.10;;;;;;;14.72;100.00;95712.63;7397781;19;20365;-71
2023/07/01 05:17:16;;;;;;;9.20;8.13;;;;;;;14.92;100.00;95713.16;7394804;19;20437;-71
2023/07/01 05:19:43;;;;;;;8.37;7.13;;;;;;;14.94;100.00;95718.88;7398378;19;20378;-71
2023/07/01 05:22:10;;;;;;;8.97;7.40;;;;;;;15.04;100.00;95746.72;7396524;19;20676;-71
2023/07/01 05:24:36;;;;;;;8.03;7.33;;;;;;;14.91;100.00;95737.50;7397900;19;20384;-71
2023/07/01 05:27:04;;;;;;;8.67;7.77;;;;;;;14.94;100.00;95747.41;7394528;19;20965;-71
2023/07/01 05:29:31;;;;;;;9.40;8.50;;;;;;;15.05;100.00;95750.91;7398624;19;20382;-71
2023/07/01 05:31:58;;;;;;;8.47;7.20;;;;;;;14.92;100.00;95729.13;7396371;19;20394;-71
2023/07/01 05:34:24;;;;;;;7.73;7.07;;;;;;;15.02;100.00;95733.78;7398356;19;20361;-71
2023/07/01 05:36:51;;;;;;;9.03;7.43;;;;;;;15.41;100.00;95753.84;7395224;19;20480;-71
2023/07/01 05:39:18;;;;;;;7.10;6.50;;;;;;;15.59;100.00;95765.34;7397873;19;20401;-71
2023/07/01 05:41:45;;;;;;;7.17;6.47;;;;;;;15.53;100.00;95740.22;7395949;19;20369;-71
2023/07/01 05:44:13;;;;;;;8.20;7.40;;;;;;;15.84;100.00;95762.84;7397520;19;20350;-71
2023/07/01 05:46:40;;;;;;;6.57;5.90;;;;;;;15.41;100.00;95751.16;7395069;19;20763;-70
2023/07/01 05:49:08;;;;;;;7.67;6.87;;;;;;;15.19;100.00;95731.59;7397782;19;20390;-70
2023/07/01 05:51:36;;;;;;;6.77;6.17;;;;;;;15.15;100.00;95694.31;7395886;19;20460;-71
2023/07/01 05:54:03;;;;;;;10.80;6.00;;;;;;;15.05;100.00;95730.38;7397628;19;20349;-71
2023/07/01 05:56:30;;;;;;;7.87;7.10;;;;;;;15.37;100.00;95725.28;7394548;19;20425;-71
2023/07/01 05:58:57;;;;;;;6.90;6.27;;;;;;;15.90;100.00;95758.72;7399031;19;20396;-72
2023/07/01 06:01:24;;;;;;;6.43;5.93;;;;;;;16.08;100.00;95759.53;7396008;19;20485;-71
2023/07/01 06:03:51;;;;;;;7.00;6.30;;;;;;;16.15;100.00;95732.13;7397364;19;20366;-71
2023/07/01 06:06:18;;;;;;;6.80;6.20;;;;;;;16.38;100.00;95750.47;7396140;19;20418;-71
2023/07/01 06:08:46;;;;;;;6.80;6.20;;;;;;;16.09;100.00;95744.31;7398440;19;20716;-71
2023/07/01 06:11:14;;;;;;;7.40;6.70;;;;;;;15.98;100.00;95754.94;7395554;19;20351;-71
2023/07/01 06:13:45;;;;;;;6.50;6.00;;;;;;;16.12;100.00;95740.88;7396823;19;20795;-71
2023/07/01 06:16:16;;;;;;;6.20;5.60;;;;;;;16.45;100.00;95756.63;7394718;19;20428;-71
2023/07/01 06:18:43;;;;;;;6.33;5.80;;;;;;;16.92;100.00;95762.03;7398214;19;20957;-71
2023/07/01 06:21:10;;;;;;;5.30;4.90;;;;;;;17.21;100.00;95736.09;7397374;19;20349;-71
2023/07/01 06:23:38;;;;;;;6.27;5.77;;;;;;;17.65;100.00;95760.47;7397250;19;20414;-71
2023/07/01 06:26:05;;;;;;;5.97;5.37;;;;;;;17.54;100.00;95762.41;7395898;19;20463;-71
2023/07/01 06:28:33;;;;;;;5.40;5.00;;;;;;;17.38;100.00;95760.13;7394170;19;20362;-71
2023/07/01 06:30:59;;;;;;;9.17;4.93;;;;;;;17.42;100.00;95758.22;7396145;19;20401;-71
2023/07/01 06:33:26;;;;;;;6.57;5.97;;;;;;;17.66;100.00;95756.66;7394547;19;20421;-71
2023/07/01 06:35:53;;;;;;;6.30;5.70;;;;;;;17.70;100.00;95733.34;7394481;19;20404;-71
2023/07/01 06:38:20;;;;;;;5.27;4.87;;;;;;;18.18;100.00;95766.81;7394349;19;20375;-71
2023/07/01 06:40:47;;;;;;;6.20;5.60;;;;;;;17.92;100.00;95750.09;7395368;19;20938;-71
2023/07/01 06:43:15;;;;;;;6.20;5.70;;;;;;;18.25;100.00;95766.78;7394129;19;20374;-71
2023/07/01 06:45:43;;;;;;;6.10;5.53;;;;;;;18.47;100.00;95760.19;7393689;19;20432;-71
2023/07/01 06:48:10;;;;;;;6.10;5.60;;;;;;;18.39;100.00;95769.41;7394011;19;20451;-71
2023/07/01 06:50:38;;;;;;;6.00;5.40;;;;;;;18.63;100.00;95770.41;7395654;19;20415;-71
2023/07/01 06:53:05;;;;;;;6.60;6.00;;;;;;;18.44;100.00;95760.97;7393862;19;20937;-71
2023/07/01 06:55:32;;;;;;;5.17;4.67;;;;;;;18.42;100.00;95762.50;7396315;19;20770;-71
2023/07/01 06:58:02;;;;;;;6.10;5.60;;;;;;;18.58;100.00;95755.53;7392614;19;20893;-71
2023/07/01 07:00:30;;;;;;;6.13;5.50;;;;;;;19.04;100.00;95769.78;7395786;19;20375;-72
2023/07/01 07:02:57;;;;;;;5.67;5.17;;;;;;;19.29;100.00;95762.31;7394188;19;20375;-72
2023/07/01 07:05:25;;;;;;;6.07;5.27;;;;;;;18.88;100.00;95760.34;7395095;19;20368;-72
2023/07/01 07:07:52;;;;;;;8.20;6.23;;;;;;;18.22;100.00;95749.59;7395877;19;20839;-72
2023/07/01 07:10:19;;;;;;;6.60;5.20;;;;;;;18.08;100.00;95730.94;7395368;19;20742;-72
2023/07/01 07:12:46;;;;;;;6.37;5.17;;;;;;;17.84;100.00;95724.53;7394289;19;20407;-72
2023/07/01 07:15:13;;;;;;;5.43;4.93;;;;;;;17.95;100.00;95748.56;7395623;19;20393;-72
2023/07/01 07:17:40;;;;;;;6.40;5.80;;;;;;;17.68;100.00;95738.34;7391182;19;20457;-71
2023/07/01 07:20:08;;;;;;;6.30;5.40;;;;;;;17.47;100.00;95732.22;7395494;19;20406;-71
2023/07/01 07:22:35;;;;;;;6.60;5.80;;;;;;;17.36;100.00;95732.25;7395226;19;20355;-71
2023/07/01 07:25:02;;;;;;;5.87;5.30;;;;;;;17.62;100.00;95747.84;7394785;19;20981;-71
2023/07/01 07:27:29;;;;;;;6.93;5.77;;;;;;;17.81;100.00;95724.53;7391766;19;20427;-71
2023/07/01 07:29:56;;;;;;;6.10;5.50;;;;;;;18.28;100.00;95729.28;7395079;19;20350;-71
2023/07/01 07:32:23;;;;;;;5.97;4.83;;;;;;;18.55;100.00;95728.75;7394858;19;20383;-71
2023/07/01 07:34:50;;;;;;;6.20;5.60;;;;;;;19.30;100.00;95737.03;7395242;19;20734;-71
2023/07/01 07:37:17;;;;;;;5.13;4.70;;;;;;;20.04;100.00;95746.25;7392014;19;20446;-71
2023/07/01 07:39:44;;;;;;;6.73;5.43;;;;;;;20.43;100.00;95726.19;7396451;19;20368;-71
2023/07/01 07:42:11;;;;;;;6.17;5.57;;;;;;;20.62;100.00;95736.31;7395246;19;20339;-71
2023/07/01 07:44:38;;;;;;;12.50;6.13;;;;;;;20.20;100.00;95739.53;7394987;19;20385;-71
2023/07/01 07:47:05;;;;;;;5.80;5.30;;;;;;;19.89;100.00;95720.72;7390989;19;20436;-71
2023/07/01 07:49:32;;;;;;;6.30;5.70;;;;;;;19.43;100.00;95738.06;7395107;19;20365;-71
2023/07/01 07:52:01;;;;;;;6.03;5.47;;;;;;;19.36;100.00;95722.03;7393234;19;20372;-71
2023/07/01 07:54:28;;;;;;;6.37;5.73;;;;;;;19.00;100.00;95737.66;7394763;19;20366;-71
2023/07/01 07:56:58;;;;;;;5.50;4.90;;;;;;;19.30;100.00;95728.22;7394324;19;20424;-71
2023/07/01 07:59:29;;;;;;;5.20;4.70;;;;;;;19.08;100.00;95727.63;7400007;19;20391;-71
2023/07/01 08:01:57;;;;;;;5.17;4.67;;;;;;;19.72;100.00;95692.19;7402266;19;20349;-71
2023/07/01 08:04:26;;;;;;;4.50;4.10;;;;;;;20.45;100.00;95745.38;7399129;19;20383;-71
2023/07/01 08:06:53;;;;;;;4.93;4.07;;;;;;;20.35;100.00;95708.66;7400738;19;20768;-71
2023/07/01 08:09:20;;;;;;;5.00;4.60;;;;;;;20.65;100.00;95732.81;7398943;19;20411;-71
2023/07/01 08:11:47;;;;;;;6.10;4.37;;;;;;;20.07;100.00;95713.22;7400393;19;20380;-71
2023/07/01 08:14:14;;;;;;;7.27;5.80;;;;;;;20.05;100.00;95722.84;7399068;19;20370;-71
2023/07/01 08:16:41;;;;;;;5.33;4.83;;;;;;;20.08;100.00;95706.69;7395394;19;20445;-72
2023/07/01 08:19:08;;;;;;;5.17;4.63;;;;;;;19.73;100.00;95691.78;7399777;19;20452;-72
2023/07/01 08:21:37;;;;;;;5.13;4.63;;;;;;;19.89;100.00;95733.38;7400141;19;20341;-72
2023/07/01 08:24:08;;;;;;;4.57;4.13;;;;;;;20.16;100.00;95723.47;7397485;19;20387;-72
2023/07/01 08:26:36;;;;;;;5.30;4.90;;;;;;;20.53;100.00;95717.25;7399227;19;20447;-72
2023/07/01 08:29:08;;;;;;;5.73;4.57;;;;;;;21.19;100.00;95708.53;7401309;19;20347;-73
2023/07/01 08:31:36;;;;;;;5.63;5.13;;;;;;;21.23;100.00;95701.19;7402315;19;20893;-72
2023/07/01 08:34:03;;;;;;;4.67;4.20;;;;;;;21.36;100.00;95709.41;7401232;19;20693;-72
2023/07/01 08:36:30;;;;;;;6.57;4.30;;;;;;;21.46;100.00;95708.47;7399844;19;20433;-72
2023/07/01 08:38:57;;;;;;;4.50;4.10;;;;;;;21.27;100.00;95711.91;7399038;19;20372;-72
2023/07/01 08:41:25;;;;;;;5.10;4.27;;;;;;;21.49;100.00;95706.88;7400971;19;20390;-71
2023/07/01 08:43:53;;;;;;;5.90;4.80;;;;;;;21.57;100.00;95719.03;7399866;19;20409;-71
2023/07/01 08:46:22;;;;;;;4.70;4.20;;;;;;;20.69;100.00;95711.25;7396705;19;20472;-71
2023/07/01 08:48:50;;;;;;;5.10;4.70;;;;;;;19.88;100.00;95670.91;7399899;19;20380;-71
2023/07/01 08:51:31;;;;;;;7.87;5.53;;;;;;;20.05;100.00;95699.47;7399605;19;20352;-71
2023/07/01 08:54:02;;;;;;;7.70;5.40;;;;;;;20.24;100.00;95705.34;7399388;19;20401;-71
2023/07/01 08:56:29;;;;;;;6.10;4.77;;;;;;;20.10;100.00;95698.25;7397131;19;20426;-71
2023/07/01 08:58:56;;;;;;;5.60;5.10;;;;;;;19.25;100.00;95704.53;7399845;19;20379;-71
2023/07/01 09:01:23;;;;;;;4.70;4.23;;;;;;;20.11;100.00;95707.81;7397968;19;20395;-71
2023/07/01 09:03:51;;;;;;;6.10;4.87;;;;;;;20.82;96.95;95698.00;7399436;19;20927;-71
2023/07/01 09:06:20;;;;;;;6.27;5.13;;;;;;;20.94;91.34;95684.00;7398369;19;20416;-71
2023/07/01 09:08:47;;;;;;;5.23;4.73;;;;;;;21.12;87.11;95702.53;7398814;19;20713;-71
2023/07/01 09:11:15;;;;;;;5.13;4.73;;;;;;;20.97;87.34;95707.38;7398222;19;20405;-72
2023/07/01 09:13:42;;;;;;;6.13;4.60;;;;;;;20.53;90.97;95705.75;7399327;19;20369;-71
2023/07/01 09:16:10;;;;;;;5.23;4.50;;;;;;;20.85;92.91;95699.91;7397334;19;20591;-71
2023/07/01 09:18:40;;;;;;;5.57;5.07;;;;;;;20.70;90.82;95701.25;7397436;19;20372;-71
2023/07/01 09:21:18;;;;;;;6.67;4.73;;;;;;;20.89;89.42;95692.53;7397616;19;20402;-71
2023/07/01 09:23:46;;;;;;;5.33;4.90;;;;;;;20.86;92.84;95666.47;7396517;19;20399;-71
2023/07/01 09:26:19;;;;;;;5.40;4.90;;;;;;;20.73;89.59;95697.78;7396907;19;20439;-72
2023/07/01 09:28:49;;;;;;;6.23;5.30;;;;;;;21.12;89.44;95692.53;7396647;19;20409;-72
2023/07/01 09:31:16;;;;;;;6.40;5.43;;;;;;;20.93;89.00;95672.47;7398472;19;20437;-71
2023/07/01 09:34:05;;;;;;;5.83;5.23;;;;;;;20.92;93.30;95684.41;7396731;19;20348;-72
2023/07/01 09:36:32;;;;;;;5.57;5.07;;;;;;;20.64;92.97;95660.69;7397905;19;20443;-71
2023/07/01 09:39:01;;;;;;;5.07;4.57;;;;;;;20.70;92.72;95680.56;7396921;19;20368;-71
2023/07/01 09:41:28;;;;;;;5.83;5.33;;;;;;;20.62;91.37;95663.78;7398955;19;20373;-71
2023/07/01 09:43:58;;;;;;;6.90;6.20;;;;;;;21.28;91.80;95656.94;7398655;19;20342;-71
2023/07/01 09:46:41;;;;;;;7.27;6.67;;;;;;;20.63;86.05;95665.28;7394611;19;20968;-71
2023/07/01 09:49:08;;;;;;;8.33;5.30;;;;;;;20.49;87.90;95667.44;7397795;19;20950;-71
2023/07/01 09:51:47;;;;;;;8.30;5.43;;;;;;;20.28;94.86;95633.56;7396233;19;20432;-71
2023/07/01 09:54:30;;;;;;;6.67;4.60;;;;;;;20.28;95.03;95661.16;7398447;19;20381;-71
2023/07/01 09:56:59;;;;;;;7.30;5.63;;;;;;;19.78;96.38;95650.34;7396518;19;20404;-71
2023/07/01 09:59:27;;;;;;;5.90;4.70;;;;;;;19.67;97.26;95637.06;7409908;19;20333;-71
2023/07/01 10:01:56;;;;;;;9.90;6.53;;;;;;;20.53;99.67;95658.16;7409073;19;20896;-71
2023/07/01 10:04:28;;;;;;;9.40;6.00;;;;;;;20.73;93.95;95627.94;7405131;19;20467;-71
2023/07/01 10:06:56;;;;;;;5.73;5.20;;;;;;;21.16;89.08;95626.00;7396215;19;20436;-71
2023/07/01 10:09:26;;;;;;;6.47;4.73;;;;;;;21.32;88.31;95656.88;7395834;19;20371;-71
2023/07/01 10:11:56;;;;;;;14.03;4.83;;;;;;;21.58;85.69;95637.16;7397407;19;20434;-71
2023/07/01 10:14:26;;;;;;;6.60;5.50;;;;;;;21.35;80.87;95642.59;7395737;19;20789;-71
2023/07/01 10:16:53;;;;;;;6.00;5.50;;;;;;;21.71;83.36;95648.06;7395960;19;20432;-71
2023/07/01 10:19:34;;;;;;;6.00;5.10;;;;;;;21.56;81.85;95636.81;7393979;19;20419;-71
2023/07/01 10:22:22;;;;;;;6.23;3.97;;;;;;;21.92;77.50;95644.94;7397709;19;20344;-71
2023/07/01 10:24:54;;;;;;;4.80;4.00;;;;;;;22.22;74.28;95641.25;7396556;19;20412;-71
2023/07/01 10:27:39;;;;;;;3.83;3.43;;;;;;;22.29;72.67;95646.44;7393957;19;20435;-71
2023/07/01 10:30:13;;;;;;;3.83;3.53;;;;;;;21.54;74.77;95644.53;7394095;19;20377;-71
2023/07/01 10:32:41;;;;;;;5.93;5.33;;;;;;;21.24;74.75;95640.09;7396063;19;20343;-71
2023/07/01 10:35:11;;;;;;;4.53;4.10;;;;;;;20.73;76.71;95634.06;7394747;19;20480;-71
2023/07/01 10:37:38;;;;;;;4.53;4.13;;;;;;;20.57;77.47;95615.91;7394494;19;20839;-71
2023/07/01 10:40:27;;;;;;;3.97;3.67;;;;;;;21.49;76.02;95645.00;7394655;19;20388;-71
2023/07/01 10:43:22;;;;;;;3.60;3.37;;;;;;;21.52;74.90;95641.53;7396568;19;20767;-71
2023/07/01 10:46:05;;;;;;;3.50;3.20;;;;;;;21.68;72.88;95641.56;7395690;19;20413;-70
2023/07/01 10:48:32;;;;;;;3.63;3.33;;;;;;;21.83;73.66;95639.34;7394698;19;20923;-71
2023/07/01 10:51:02;;;;;;;3.57;3.03;;;;;;;21.84;67.64;95630.84;7396301;19;20404;-71
2023/07/01 10:53:30;;;;;;;3.50;3.30;;;;;;;21.16;68.15;95617.94;7395130;19;20412;-71
2023/07/01 10:56:24;;;;;;;4.83;3.80;;;;;;;21.06;69.53;95626.19;7396041;19;20427;-71
2023/07/01 10:59:16;;;;;;;3.23;3.00;;;;;;;20.67;70.87;95604.19;7395716;19;20377;-71
2023/07/01 11:01:45;;;;;;;3.63;3.33;;;;;;;20.39;71.68;95623.44;7399742;19;20365;-71
2023/07/01 11:04:13;;;;;;;5.17;3.33;;;;;;;20.14;72.25;95626.47;7399649;19;20375;-71
2023/07/01 11:06:52;;;;;;;4.20;3.40;;;;;;;20.14;72.92;95604.25;7399728;19;20419;-71
2023/07/01 11:09:27;;;;;;;5.93;3.40;;;;;;;20.93;73.58;95609.91;7399269;19;20895;-72
2023/07/01 11:11:59;;;;;;;3.40;2.87;;;;;;;21.31;70.59;95609.63;7400213;19;20375;-70
2023/07/01 11:14:31;;;;;;;4.27;3.10;;;;;;;21.57;69.20;95581.84;7399371;19;20395;-71
2023/07/01 11:17:05;;;;;;;4.17;2.90;;;;;;;21.65;67.92;95598.59;7396898;19;20427;-70
2023/07/01 11:19:32;;;;;;;3.30;3.00;;;;;;;22.20;68.43;95580.91;7397231;19;20406;-71
2023/07/01 11:22:01;;;;;;;5.83;2.90;;;;;;;22.22;64.15;95600.09;7399352;19;20403;-70
2023/07/01 11:24:29;;;;;;;5.70;3.23;;;;;;;22.32;64.19;95599.84;7398347;19;20344;-71
2023/07/01 11:27:17;;;;;;;3.03;2.83;;;;;;;22.58;64.10;95595.38;7396658;19;20409;-69
2023/07/01 11:29:45;;;;;;;5.60;3.30;;;;;;;22.56;63.99;95586.19;7397898;19;20372;-70
2023/07/01 11:32:17;;;;;;;5.33;3.40;;;;;;;22.35;64.33;95582.06;7402878;19;20352;-71